sensor_id;sensor_type;location;lat;lon;timestamp;P1;durP1;ratioP1;P2;durP2;ratioP2
15404;SDS011;7801;48.124;11.590;2023-07-29T00:00:32;0.97;;;0.97;;
15404;SDS011;7801;48.124;11.590;2023-07-29T00:02:57;3.67;;;1.13;;
15404;SDS011;7801;48.124;11.590;2023-07-29T00:05:23;0.73;;;0.73;;
15404;SDS011;7801;48.124;11.590;2023-07-29T00:07:48;0.53;;;0.53;;
15404;SDS011;7801;48.124;11.590;2023-07-29T00:10:13;1.17;;;1.07;;
15404;SDS011;7801;48.124;11.590;2023-07-29T00:12:38;0.53;;;0.53;;
15404;SDS011;7801;48.124;11.590;2023-07-29T00:15:04;0.70;;;0.70;;
15404;SDS011;7801;48.124;11.590;2023-07-29T00:17:30;0.50;;;0.50;;
15404;SDS011;7801;48.124;11.590;2023-07-29T00:19:55;0.30;;;0.30;;
15404;SDS011;7801;48.124;11.590;2023-07-29T00:22:20;0.30;;;0.30;;
15404;SDS011;7801;48.124;11.590;2023-07-29T00:24:50;0.43;;;0.43;;
15404;SDS011;7801;48.124;11.590;2023-07-29T00:27:17;0.37;;;0.30;;
15404;SDS011;7801;48.124;11.590;2023-07-29T00:29:42;0.40;;;0.40;;
15404;SDS011;7801;48.124;11.590;2023-07-29T00:32:07;0.73;;;0.73;;
15404;SDS011;7801;48.124;11.590;2023-07-29T00:34:32;0.73;;;0.73;;
15404;SDS011;7801;48.124;11.590;2023-07-29T00:36:58;0.33;;;0.33;;
15404;SDS011;7801;48.124;11.590;2023-07-29T00:39:23;1.00;;;1.00;;
15404;SDS011;7801;48.124;11.590;2023-07-29T00:41:48;1.07;;;0.97;;
15404;SDS011;7801;48.124;11.590;2023-07-29T00:44:14;0.60;;;0.60;;
15404;SDS011;7801;48.124;11.590;2023-07-29T00:46:39;0.87;;;0.87;;
15404;SDS011;7801;48.124;11.590;2023-07-29T00:49:06;0.40;;;0.40;;
15404;SDS011;7801;48.124;11.590;2023-07-29T00:51:31;0.30;;;0.30;;
15404;SDS011;7801;48.124;11.590;2023-07-29T00:53:57;0.60;;;0.60;;
15404;SDS011;7801;48.124;11.590;2023-07-29T00:56:24;0.83;;;0.83;;
15404;SDS011;7801;48.124;11.590;2023-07-29T00:58:49;0.47;;;0.37;;
15404;SDS011;7801;48.124;11.590;2023-07-29T01:01:16;0.30;;;0.30;;
15404;SDS011;7801;48.124;11.590;2023-07-29T01:03:42;0.47;;;0.47;;
15404;SDS011;7801;48.124;11.590;2023-07-29T01:08:45;0.20;;;0.20;;
15404;SDS011;7801;48.124;11.590;2023-07-29T01:13:51;1.00;;;1.00;;
15404;SDS011;7801;48.124;11.590;2023-07-29T01:17:07;0.23;;;0.23;;
15404;SDS011;7801;48.124;11.590;2023-07-29T01:22:30;0.40;;;0.40;;
15404;SDS011;7801;48.124;11.590;2023-07-29T01:24:58;0.57;;;0.57;;
15404;SDS011;7801;48.124;11.590;2023-07-29T01:27:24;0.20;;;0.20;;
15404;SDS011;7801;48.124;11.590;2023-07-29T01:29:52;0.40;;;0.40;;
15404;SDS011;7801;48.124;11.590;2023-07-29T01:33:07;0.57;;;0.57;;
15404;SDS011;7801;48.124;11.590;2023-07-29T01:35:17;0.93;;;0.93;;
15404;SDS011;7801;48.124;11.590;2023-07-29T01:38:01;0.93;;;0.93;;
15404;SDS011;7801;48.124;11.590;2023-07-29T01:40:32;0.53;;;0.53;;
15404;SDS011;7801;48.124;11.590;2023-07-29T01:43:01;0.63;;;0.63;;
15404;SDS011;7801;48.124;11.590;2023-07-29T01:45:28;0.53;;;0.53;;
15404;SDS011;7801;48.124;11.590;2023-07-29T01:47:56;0.77;;;0.77;;
15404;SDS011;7801;48.124;11.590;2023-07-29T01:50:22;0.47;;;0.47;;
15404;SDS011;7801;48.124;11.590;2023-07-29T01:52:47;0.90;;;0.90;;
15404;SDS011;7801;48.124;11.590;2023-07-29T01:55:12;0.80;;;0.80;;
15404;SDS011;7801;48.124;11.590;2023-07-29T01:57:38;0.27;;;0.27;;
15404;SDS011;7801;48.124;11.590;2023-07-29T02:00:03;0.67;;;0.67;;
15404;SDS011;7801;48.124;11.590;2023-07-29T02:02:29;0.53;;;0.53;;
15404;SDS011;7801;48.124;11.590;2023-07-29T02:04:54;3.30;;;1.00;;
15404;SDS011;7801;48.124;11.590;2023-07-29T02:07:20;0.47;;;0.47;;
15404;SDS011;7801;48.124;11.590;2023-07-29T02:09:47;0.83;;;0.83;;
15404;SDS011;7801;48.124;11.590;2023-07-29T02:12:12;1.50;;;0.80;;
15404;SDS011;7801;48.124;11.590;2023-07-29T02:14:38;1.00;;;1.00;;
15404;SDS011;7801;48.124;11.590;2023-07-29T02:17:04;1.93;;;0.60;;
15404;SDS011;7801;48.124;11.590;2023-07-29T02:19:31;0.53;;;0.53;;
15404;SDS011;7801;48.124;11.590;2023-07-29T02:21:56;2.10;;;1.10;;
15404;SDS011;7801;48.124;11.590;2023-07-29T02:24:21;1.47;;;0.53;;
15404;SDS011;7801;48.124;11.590;2023-07-29T02:26:47;0.73;;;0.73;;
15404;SDS011;7801;48.124;11.590;2023-07-29T02:29:12;0.57;;;0.57;;
15404;SDS011;7801;48.124;11.590;2023-07-29T02:31:38;0.40;;;0.40;;
15404;SDS011;7801;48.124;11.590;2023-07-29T02:34:04;0.67;;;0.67;;
15404;SDS011;7801;48.124;11.590;2023-07-29T02:36:29;0.40;;;0.40;;
15404;SDS011;7801;48.124;11.590;2023-07-29T02:38:54;1.60;;;0.40;;
15404;SDS011;7801;48.124;11.590;2023-07-29T02:41:20;0.27;;;0.27;;
15404;SDS011;7801;48.124;11.590;2023-07-29T02:43:48;0.60;;;0.60;;
15404;SDS011;7801;48.124;11.590;2023-07-29T02:46:15;0.53;;;0.53;;
15404;SDS011;7801;48.124;11.590;2023-07-29T02:48:41;1.23;;;0.77;;
15404;SDS011;7801;48.124;11.590;2023-07-29T02:51:07;0.50;;;0.50;;
15404;SDS011;7801;48.124;11.590;2023-07-29T02:53:32;0.43;;;0.43;;
15404;SDS011;7801;48.124;11.590;2023-07-29T02:55:57;0.73;;;0.73;;
15404;SDS011;7801;48.124;11.590;2023-07-29T02:58:23;0.60;;;0.60;;
15404;SDS011;7801;48.124;11.590;2023-07-29T03:00:48;0.60;;;0.60;;
15404;SDS011;7801;48.124;11.590;2023-07-29T03:03:14;0.87;;;0.87;;
15404;SDS011;7801;48.124;11.590;2023-07-29T03:05:39;0.33;;;0.33;;
15404;SDS011;7801;48.124;11.590;2023-07-29T03:08:04;0.30;;;0.30;;
15404;SDS011;7801;48.124;11.590;2023-07-29T03:10:30;0.67;;;0.67;;
15404;SDS011;7801;48.124;11.590;2023-07-29T03:12:55;1.20;;;1.10;;
15404;SDS011;7801;48.124;11.590;2023-07-29T03:15:24;0.70;;;0.70;;
15404;SDS011;7801;48.124;11.590;2023-07-29T03:17:50;0.53;;;0.53;;
15404;SDS011;7801;48.124;11.590;2023-07-29T03:20:19;0.53;;;0.53;;
15404;SDS011;7801;48.124;11.590;2023-07-29T03:22:45;0.40;;;0.40;;
15404;SDS011;7801;48.124;11.590;2023-07-29T03:25:10;11.00;;;1.47;;
15404;SDS011;7801;48.124;11.590;2023-07-29T03:27:36;0.50;;;0.43;;
15404;SDS011;7801;48.124;11.590;2023-07-29T03:30:02;0.77;;;0.70;;
15404;SDS011;7801;48.124;11.590;2023-07-29T03:32:28;0.30;;;0.30;;
15404;SDS011;7801;48.124;11.590;2023-07-29T03:34:53;4.90;;;0.97;;
15404;SDS011;7801;48.124;11.590;2023-07-29T03:37:19;0.30;;;0.30;;
15404;SDS011;7801;48.124;11.590;2023-07-29T03:39:45;0.50;;;0.50;;
15404;SDS011;7801;48.124;11.590;2023-07-29T03:42:11;0.30;;;0.30;;
15404;SDS011;7801;48.124;11.590;2023-07-29T03:44:37;0.83;;;0.83;;
15404;SDS011;7801;48.124;11.590;2023-07-29T03:47:04;2.80;;;0.50;;
15404;SDS011;7801;48.124;11.590;2023-07-29T03:49:30;0.30;;;0.30;;
15404;SDS011;7801;48.124;11.590;2023-07-29T03:51:56;0.20;;;0.20;;
15404;SDS011;7801;48.124;11.590;2023-07-29T03:54:21;0.57;;;0.57;;
15404;SDS011;7801;48.124;11.590;2023-07-29T03:56:46;0.83;;;0.83;;
15404;SDS011;7801;48.124;11.590;2023-07-29T03:59:12;0.43;;;0.43;;
15404;SDS011;7801;48.124;11.590;2023-07-29T04:01:37;0.53;;;0.40;;
15404;SDS011;7801;48.124;11.590;2023-07-29T04:04:02;0.57;;;0.57;;
15404;SDS011;7801;48.124;11.590;2023-07-29T04:06:28;0.30;;;0.30;;
15404;SDS011;7801;48.124;11.590;2023-07-29T04:08:53;0.43;;;0.43;;
15404;SDS011;7801;48.124;11.590;2023-07-29T04:11:18;0.40;;;0.40;;
15404;SDS011;7801;48.124;11.590;2023-07-29T04:13:44;0.60;;;0.60;;
15404;SDS011;7801;48.124;11.590;2023-07-29T04:16:09;1.40;;;0.87;;
15404;SDS011;7801;48.124;11.590;2023-07-29T04:18:34;0.60;;;0.60;;
15404;SDS011;7801;48.124;11.590;2023-07-29T04:21:00;0.63;;;0.63;;
15404;SDS011;7801;48.124;11.590;2023-07-29T04:23:25;3.83;;;0.87;;
15404;SDS011;7801;48.124;11.590;2023-07-29T04:25:51;0.83;;;0.83;;
15404;SDS011;7801;48.124;11.590;2023-07-29T04:28:16;0.33;;;0.33;;
15404;SDS011;7801;48.124;11.590;2023-07-29T04:30:42;0.40;;;0.40;;
15404;SDS011;7801;48.124;11.590;2023-07-29T04:33:07;0.60;;;0.50;;
15404;SDS011;7801;48.124;11.590;2023-07-29T04:35:33;0.33;;;0.33;;
15404;SDS011;7801;48.124;11.590;2023-07-29T04:37:58;0.30;;;0.30;;
15404;SDS011;7801;48.124;11.590;2023-07-29T04:40:23;3.03;;;0.87;;
15404;SDS011;7801;48.124;11.590;2023-07-29T04:42:49;0.33;;;0.33;;
15404;SDS011;7801;48.124;11.590;2023-07-29T04:45:16;0.63;;;0.63;;
15404;SDS011;7801;48.124;11.590;2023-07-29T04:47:41;1.20;;;0.83;;
15404;SDS011;7801;48.124;11.590;2023-07-29T04:50:07;0.70;;;0.70;;
15404;SDS011;7801;48.124;11.590;2023-07-29T04:52:32;0.83;;;0.83;;
15404;SDS011;7801;48.124;11.590;2023-07-29T04:54:58;0.70;;;0.70;;
15404;SDS011;7801;48.124;11.590;2023-07-29T04:57:23;0.20;;;0.20;;
15404;SDS011;7801;48.124;11.590;2023-07-29T04:59:48;0.73;;;0.73;;
15404;SDS011;7801;48.124;11.590;2023-07-29T05:02:14;2.93;;;1.07;;
15404;SDS011;7801;48.124;11.590;2023-07-29T05:04:40;0.80;;;0.80;;
15404;SDS011;7801;48.124;11.590;2023-07-29T05:07:06;2.43;;;1.00;;
15404;SDS011;7801;48.124;11.590;2023-07-29T05:09:31;0.47;;;0.47;;
15404;SDS011;7801;48.124;11.590;2023-07-29T05:11:56;0.43;;;0.43;;
15404;SDS011;7801;48.124;11.590;2023-07-29T05:14:22;0.70;;;0.70;;
15404;SDS011;7801;48.124;11.590;2023-07-29T05:16:47;0.40;;;0.40;;
15404;SDS011;7801;48.124;11.590;2023-07-29T05:19:13;0.87;;;0.87;;
15404;SDS011;7801;48.124;11.590;2023-07-29T05:21:38;0.40;;;0.40;;
15404;SDS011;7801;48.124;11.590;2023-07-29T05:24:07;0.47;;;0.47;;
15404;SDS011;7801;48.124;11.590;2023-07-29T05:26:33;0.50;;;0.50;;
15404;SDS011;7801;48.124;11.590;2023-07-29T05:29:00;0.50;;;0.50;;
15404;SDS011;7801;48.124;11.590;2023-07-29T05:31:26;1.00;;;1.00;;
15404;SDS011;7801;48.124;11.590;2023-07-29T05:33:51;0.50;;;0.50;;
15404;SDS011;7801;48.124;11.590;2023-07-29T05:36:16;2.33;;;1.13;;
15404;SDS011;7801;48.124;11.590;2023-07-29T05:38:42;0.30;;;0.30;;
15404;SDS011;7801;48.124;11.590;2023-07-29T05:41:07;0.90;;;0.63;;
15404;SDS011;7801;48.124;11.590;2023-07-29T05:43:32;0.80;;;0.80;;
15404;SDS011;7801;48.124;11.590;2023-07-29T05:45:58;0.60;;;0.60;;
15404;SDS011;7801;48.124;11.590;2023-07-29T05:48:23;0.40;;;0.40;;
15404;SDS011;7801;48.124;11.590;2023-07-29T05:50:48;0.60;;;0.60;;
15404;SDS011;7801;48.124;11.590;2023-07-29T05:53:14;0.70;;;0.70;;
15404;SDS011;7801;48.124;11.590;2023-07-29T05:55:39;0.97;;;0.87;;
15404;SDS011;7801;48.124;11.590;2023-07-29T05:58:05;0.20;;;0.20;;
15404;SDS011;7801;48.124;11.590;2023-07-29T06:00:30;0.40;;;0.40;;
15404;SDS011;7801;48.124;11.590;2023-07-29T06:02:56;0.30;;;0.30;;
15404;SDS011;7801;48.124;11.590;2023-07-29T06:05:21;0.30;;;0.30;;
15404;SDS011;7801;48.124;11.590;2023-07-29T06:07:47;0.80;;;0.80;;
15404;SDS011;7801;48.124;11.590;2023-07-29T06:10:13;0.33;;;0.30;;
15404;SDS011;7801;48.124;11.590;2023-07-29T06:12:43;0.70;;;0.70;;
15404;SDS011;7801;48.124;11.590;2023-07-29T06:15:09;0.90;;;0.47;;
15404;SDS011;7801;48.124;11.590;2023-07-29T06:17:34;0.97;;;0.90;;
15404;SDS011;7801;48.124;11.590;2023-07-29T06:19:59;8.47;;;0.83;;
15404;SDS011;7801;48.124;11.590;2023-07-29T06:22:25;1.53;;;0.57;;
15404;SDS011;7801;48.124;11.590;2023-07-29T06:24:50;0.30;;;0.30;;
15404;SDS011;7801;48.124;11.590;2023-07-29T06:27:15;0.23;;;0.23;;
15404;SDS011;7801;48.124;11.590;2023-07-29T06:29:41;5.40;;;0.83;;
15404;SDS011;7801;48.124;11.590;2023-07-29T06:32:06;1.17;;;1.07;;
15404;SDS011;7801;48.124;11.590;2023-07-29T06:34:32;0.97;;;0.80;;
15404;SDS011;7801;48.124;11.590;2023-07-29T06:36:57;0.10;;;0.10;;
15404;SDS011;7801;48.124;11.590;2023-07-29T06:39:22;1.03;;;0.93;;
15404;SDS011;7801;48.124;11.590;2023-07-29T06:41:48;0.37;;;0.30;;
15404;SDS011;7801;48.124;11.590;2023-07-29T06:44:13;0.40;;;0.40;;
15404;SDS011;7801;48.124;11.590;2023-07-29T06:46:39;0.30;;;0.30;;
15404;SDS011;7801;48.124;11.590;2023-07-29T06:49:05;0.63;;;0.63;;
15404;SDS011;7801;48.124;11.590;2023-07-29T06:51:30;0.30;;;0.30;;
15404;SDS011;7801;48.124;11.590;2023-07-29T06:53:59;1.80;;;0.60;;
15404;SDS011;7801;48.124;11.590;2023-07-29T06:56:24;0.70;;;0.70;;
15404;SDS011;7801;48.124;11.590;2023-07-29T06:58:49;0.50;;;0.50;;
15404;SDS011;7801;48.124;11.590;2023-07-29T07:01:15;0.63;;;0.63;;
15404;SDS011;7801;48.124;11.590;2023-07-29T07:03:40;0.83;;;0.83;;
15404;SDS011;7801;48.124;11.590;2023-07-29T07:06:05;4.43;;;1.13;;
15404;SDS011;7801;48.124;11.590;2023-07-29T07:08:31;0.40;;;0.40;;
15404;SDS011;7801;48.124;11.590;2023-07-29T07:10:56;0.50;;;0.50;;
15404;SDS011;7801;48.124;11.590;2023-07-29T07:13:21;0.73;;;0.73;;
15404;SDS011;7801;48.124;11.590;2023-07-29T07:15:47;0.57;;;0.57;;
15404;SDS011;7801;48.124;11.590;2023-07-29T07:18:12;0.80;;;0.80;;
15404;SDS011;7801;48.124;11.590;2023-07-29T07:20:38;0.67;;;0.67;;
15404;SDS011;7801;48.124;11.590;2023-07-29T07:23:03;1.33;;;1.23;;
15404;SDS011;7801;48.124;11.590;2023-07-29T07:25:30;0.37;;;0.37;;
15404;SDS011;7801;48.124;11.590;2023-07-29T07:27:56;0.60;;;0.60;;
15404;SDS011;7801;48.124;11.590;2023-07-29T07:30:21;0.70;;;0.70;;
15404;SDS011;7801;48.124;11.590;2023-07-29T07:32:46;1.47;;;0.40;;
15404;SDS011;7801;48.124;11.590;2023-07-29T07:35:12;0.23;;;0.23;;
15404;SDS011;7801;48.124;11.590;2023-07-29T07:37:37;0.37;;;0.37;;
15404;SDS011;7801;48.124;11.590;2023-07-29T07:40:03;0.83;;;0.83;;
15404;SDS011;7801;48.124;11.590;2023-07-29T07:42:28;1.27;;;0.80;;
15404;SDS011;7801;48.124;11.590;2023-07-29T07:44:54;1.03;;;0.97;;
15404;SDS011;7801;48.124;11.590;2023-07-29T07:47:19;3.63;;;0.93;;
15404;SDS011;7801;48.124;11.590;2023-07-29T07:49:44;10.63;;;0.97;;
15404;SDS011;7801;48.124;11.590;2023-07-29T07:52:10;0.63;;;0.63;;
15404;SDS011;7801;48.124;11.590;2023-07-29T07:54:35;0.73;;;0.73;;
15404;SDS011;7801;48.124;11.590;2023-07-29T07:57:00;0.53;;;0.53;;
15404;SDS011;7801;48.124;11.590;2023-07-29T07:59:25;0.30;;;0.30;;
15404;SDS011;7801;48.124;11.590;2023-07-29T08:01:51;0.90;;;0.60;;
15404;SDS011;7801;48.124;11.590;2023-07-29T08:04:17;0.77;;;0.77;;
15404;SDS011;7801;48.124;11.590;2023-07-29T08:06:42;2.57;;;0.90;;
15404;SDS011;7801;48.124;11.590;2023-07-29T08:09:08;0.63;;;0.63;;
15404;SDS011;7801;48.124;11.590;2023-07-29T08:11:33;0.60;;;0.60;;
15404;SDS011;7801;48.124;11.590;2023-07-29T08:13:58;0.50;;;0.50;;
15404;SDS011;7801;48.124;11.590;2023-07-29T08:16:24;0.93;;;0.93;;
15404;SDS011;7801;48.124;11.590;2023-07-29T08:18:49;0.50;;;0.50;;
15404;SDS011;7801;48.124;11.590;2023-07-29T08:21:14;0.90;;;0.87;;
15404;SDS011;7801;48.124;11.590;2023-07-29T08:23:40;0.50;;;0.50;;
15404;SDS011;7801;48.124;11.590;2023-07-29T08:26:05;0.80;;;0.80;;
15404;SDS011;7801;48.124;11.590;2023-07-29T08:28:32;0.73;;;0.73;;
15404;SDS011;7801;48.124;11.590;2023-07-29T08:31:01;5.53;;;0.87;;
15404;SDS011;7801;48.124;11.590;2023-07-29T08:33:27;0.73;;;0.73;;
15404;SDS011;7801;48.124;11.590;2023-07-29T08:35:53;0.53;;;0.53;;
15404;SDS011;7801;48.124;11.590;2023-07-29T08:38:18;1.40;;;0.93;;
15404;SDS011;7801;48.124;11.590;2023-07-29T08:43:26;2.53;;;0.60;;
15404;SDS011;7801;48.124;11.590;2023-07-29T08:45:57;0.50;;;0.50;;
15404;SDS011;7801;48.124;11.590;2023-07-29T08:48:23;1.13;;;1.07;;
15404;SDS011;7801;48.124;11.590;2023-07-29T08:51:04;2.10;;;1.30;;
15404;SDS011;7801;48.124;11.590;2023-07-29T08:53:31;0.77;;;0.77;;
15404;SDS011;7801;48.124;11.590;2023-07-29T08:55:56;1.00;;;1.00;;
15404;SDS011;7801;48.124;11.590;2023-07-29T08:58:23;0.90;;;0.90;;
15404;SDS011;7801;48.124;11.590;2023-07-29T09:00:49;3.43;;;1.07;;
15404;SDS011;7801;48.124;11.590;2023-07-29T09:03:15;0.63;;;0.63;;
15404;SDS011;7801;48.124;11.590;2023-07-29T09:05:40;1.30;;;1.30;;
15404;SDS011;7801;48.124;11.590;2023-07-29T09:08:06;1.87;;;1.03;;
15404;SDS011;7801;48.124;11.590;2023-07-29T09:10:36;0.70;;;0.70;;
15404;SDS011;7801;48.124;11.590;2023-07-29T09:13:03;0.60;;;0.60;;
15404;SDS011;7801;48.124;11.590;2023-07-29T09:15:29;0.80;;;0.80;;
15404;SDS011;7801;48.124;11.590;2023-07-29T09:17:57;0.97;;;0.97;;
15404;SDS011;7801;48.124;11.590;2023-07-29T09:20:28;0.80;;;0.80;;
15404;SDS011;7801;48.124;11.590;2023-07-29T09:22:54;0.50;;;0.50;;
15404;SDS011;7801;48.124;11.590;2023-07-29T09:25:26;1.63;;;1.13;;
15404;SDS011;7801;48.124;11.590;2023-07-29T09:27:52;2.73;;;1.13;;
15404;SDS011;7801;48.124;11.590;2023-07-29T09:30:23;0.87;;;0.70;;
15404;SDS011;7801;48.124;11.590;2023-07-29T09:32:52;0.83;;;0.83;;
15404;SDS011;7801;48.124;11.590;2023-07-29T09:35:19;1.20;;;1.20;;
15404;SDS011;7801;48.124;11.590;2023-07-29T09:37:45;0.57;;;0.57;;
15404;SDS011;7801;48.124;11.590;2023-07-29T09:40:13;0.70;;;0.70;;
15404;SDS011;7801;48.124;11.590;2023-07-29T09:42:40;1.23;;;1.17;;
15404;SDS011;7801;48.124;11.590;2023-07-29T09:45:14;1.70;;;0.87;;
15404;SDS011;7801;48.124;11.590;2023-07-29T09:47:45;0.87;;;0.87;;
15404;SDS011;7801;48.124;11.590;2023-07-29T09:50:11;0.77;;;0.77;;
15404;SDS011;7801;48.124;11.590;2023-07-29T09:52:36;1.17;;;1.17;;
15404;SDS011;7801;48.124;11.590;2023-07-29T09:55:02;1.53;;;1.43;;
15404;SDS011;7801;48.124;11.590;2023-07-29T09:57:27;0.73;;;0.73;;
15404;SDS011;7801;48.124;11.590;2023-07-29T09:59:53;1.97;;;0.97;;
15404;SDS011;7801;48.124;11.590;2023-07-29T10:02:19;1.60;;;1.20;;
15404;SDS011;7801;48.124;11.590;2023-07-29T10:04:46;6.43;;;5.90;;
15404;SDS011;7801;48.124;11.590;2023-07-29T10:07:12;21.57;;;19.20;;
15404;SDS011;7801;48.124;11.590;2023-07-29T10:09:39;8.00;;;7.37;;
15404;SDS011;7801;48.124;11.590;2023-07-29T10:12:08;3.23;;;2.93;;
15404;SDS011;7801;48.124;11.590;2023-07-29T10:14:34;15.83;;;11.47;;
15404;SDS011;7801;48.124;11.590;2023-07-29T10:17:01;20.20;;;16.10;;
15404;SDS011;7801;48.124;11.590;2023-07-29T10:19:27;7.83;;;6.97;;
15404;SDS011;7801;48.124;11.590;2023-07-29T10:21:56;13.13;;;12.03;;
15404;SDS011;7801;48.124;11.590;2023-07-29T10:24:26;2.63;;;2.53;;
15404;SDS011;7801;48.124;11.590;2023-07-29T10:26:59;1.10;;;1.10;;
15404;SDS011;7801;48.124;11.590;2023-07-29T10:29:28;4.90;;;4.40;;
15404;SDS011;7801;48.124;11.590;2023-07-29T10:31:57;5.93;;;2.87;;
15404;SDS011;7801;48.124;11.590;2023-07-29T10:34:25;5.70;;;5.10;;
15404;SDS011;7801;48.124;11.590;2023-07-29T10:36:51;16.83;;;11.90;;
15404;SDS011;7801;48.124;11.590;2023-07-29T10:39:17;22.17;;;15.17;;
15404;SDS011;7801;48.124;11.590;2023-07-29T10:47:14;5.13;;;1.23;;
15404;SDS011;7801;48.124;11.590;2023-07-29T10:49:43;0.83;;;0.83;;
15404;SDS011;7801;48.124;11.590;2023-07-29T10:52:13;0.60;;;0.60;;
15404;SDS011;7801;48.124;11.590;2023-07-29T10:54:47;1.00;;;1.00;;
15404;SDS011;7801;48.124;11.590;2023-07-29T10:57:30;0.83;;;0.83;;
15404;SDS011;7801;48.124;11.590;2023-07-29T10:59:56;1.27;;;1.23;;
15404;SDS011;7801;48.124;11.590;2023-07-29T11:02:28;0.87;;;0.87;;
15404;SDS011;7801;48.124;11.590;2023-07-29T11:04:55;1.47;;;1.37;;
15404;SDS011;7801;48.124;11.590;2023-07-29T11:07:21;0.83;;;0.83;;
15404;SDS011;7801;48.124;11.590;2023-07-29T11:09:55;1.43;;;1.33;;
15404;SDS011;7801;48.124;11.590;2023-07-29T11:17:36;0.40;;;0.40;;
15404;SDS011;7801;48.124;11.590;2023-07-29T11:20:05;0.90;;;0.90;;
15404;SDS011;7801;48.124;11.590;2023-07-29T11:22:32;0.40;;;0.40;;
15404;SDS011;7801;48.124;11.590;2023-07-29T11:24:58;0.63;;;0.63;;
15404;SDS011;7801;48.124;11.590;2023-07-29T11:27:23;0.53;;;0.53;;
15404;SDS011;7801;48.124;11.590;2023-07-29T11:29:49;0.47;;;0.47;;
15404;SDS011;7801;48.124;11.590;2023-07-29T11:32:15;0.20;;;0.20;;
15404;SDS011;7801;48.124;11.590;2023-07-29T11:34:41;0.50;;;0.50;;
15404;SDS011;7801;48.124;11.590;2023-07-29T11:37:10;0.80;;;0.80;;
15404;SDS011;7801;48.124;11.590;2023-07-29T11:39:39;0.70;;;0.70;;
15404;SDS011;7801;48.124;11.590;2023-07-29T11:42:11;1.03;;;0.87;;
15404;SDS011;7801;48.124;11.590;2023-07-29T11:44:37;0.30;;;0.30;;
15404;SDS011;7801;48.124;11.590;2023-07-29T11:47:09;0.37;;;0.37;;
15404;SDS011;7801;48.124;11.590;2023-07-29T11:49:37;0.87;;;0.87;;
15404;SDS011;7801;48.124;11.590;2023-07-29T11:52:08;0.77;;;0.77;;
15404;SDS011;7801;48.124;11.590;2023-07-29T11:54:36;0.80;;;0.63;;
15404;SDS011;7801;48.124;11.590;2023-07-29T11:57:08;1.80;;;0.70;;
15404;SDS011;7801;48.124;11.590;2023-07-29T11:59:34;1.13;;;1.13;;
15404;SDS011;7801;48.124;11.590;2023-07-29T12:02:01;0.73;;;0.70;;
15404;SDS011;7801;48.124;11.590;2023-07-29T12:04:34;0.93;;;0.93;;
15404;SDS011;7801;48.124;11.590;2023-07-29T12:07:00;0.60;;;0.60;;
15404;SDS011;7801;48.124;11.590;2023-07-29T12:09:26;0.53;;;0.53;;
15404;SDS011;7801;48.124;11.590;2023-07-29T12:11:52;0.97;;;0.57;;
15404;SDS011;7801;48.124;11.590;2023-07-29T12:14:18;0.80;;;0.80;;
15404;SDS011;7801;48.124;11.590;2023-07-29T12:16:44;1.33;;;0.77;;
15404;SDS011;7801;48.124;11.590;2023-07-29T12:19:12;0.70;;;0.70;;
15404;SDS011;7801;48.124;11.590;2023-07-29T12:21:39;0.83;;;0.83;;
15404;SDS011;7801;48.124;11.590;2023-07-29T12:24:06;0.20;;;0.20;;
15404;SDS011;7801;48.124;11.590;2023-07-29T12:26:32;0.67;;;0.63;;
15404;SDS011;7801;48.124;11.590;2023-07-29T12:28:57;1.07;;;1.07;;
15404;SDS011;7801;48.124;11.590;2023-07-29T12:31:30;0.87;;;0.57;;
15404;SDS011;7801;48.124;11.590;2023-07-29T12:33:57;0.73;;;0.73;;
15404;SDS011;7801;48.124;11.590;2023-07-29T12:36:26;0.80;;;0.80;;
15404;SDS011;7801;48.124;11.590;2023-07-29T12:38:52;1.00;;;0.87;;
15404;SDS011;7801;48.124;11.590;2023-07-29T12:41:18;0.70;;;0.30;;
15404;SDS011;7801;48.124;11.590;2023-07-29T12:43:43;0.53;;;0.53;;
15404;SDS011;7801;48.124;11.590;2023-07-29T12:46:08;1.00;;;1.00;;
15404;SDS011;7801;48.124;11.590;2023-07-29T12:48:34;0.87;;;0.87;;
15404;SDS011;7801;48.124;11.590;2023-07-29T12:50:59;0.73;;;0.73;;
15404;SDS011;7801;48.124;11.590;2023-07-29T12:53:24;0.73;;;0.73;;
15404;SDS011;7801;48.124;11.590;2023-07-29T12:55:50;0.77;;;0.73;;
15404;SDS011;7801;48.124;11.590;2023-07-29T12:58:15;0.67;;;0.67;;
15404;SDS011;7801;48.124;11.590;2023-07-29T13:00:40;1.60;;;0.70;;
15404;SDS011;7801;48.124;11.590;2023-07-29T13:03:06;0.80;;;0.80;;
15404;SDS011;7801;48.124;11.590;2023-07-29T13:05:31;0.40;;;0.40;;
15404;SDS011;7801;48.124;11.590;2023-07-29T13:07:56;1.13;;;0.90;;
15404;SDS011;7801;48.124;11.590;2023-07-29T13:10:21;0.60;;;0.60;;
15404;SDS011;7801;48.124;11.590;2023-07-29T13:12:47;0.57;;;0.57;;
15404;SDS011;7801;48.124;11.590;2023-07-29T13:15:13;0.87;;;0.87;;
15404;SDS011;7801;48.124;11.590;2023-07-29T13:17:39;0.53;;;0.53;;
15404;SDS011;7801;48.124;11.590;2023-07-29T13:20:04;0.40;;;0.40;;
15404;SDS011;7801;48.124;11.590;2023-07-29T13:22:31;0.57;;;0.57;;
15404;SDS011;7801;48.124;11.590;2023-07-29T13:24:56;1.17;;;1.17;;
15404;SDS011;7801;48.124;11.590;2023-07-29T13:27:21;0.80;;;0.80;;
15404;SDS011;7801;48.124;11.590;2023-07-29T13:29:47;0.90;;;0.90;;
15404;SDS011;7801;48.124;11.590;2023-07-29T13:32:12;1.03;;;1.03;;
15404;SDS011;7801;48.124;11.590;2023-07-29T13:34:38;1.50;;;1.40;;
15404;SDS011;7801;48.124;11.590;2023-07-29T13:37:05;1.50;;;1.50;;
15404;SDS011;7801;48.124;11.590;2023-07-29T13:39:31;1.03;;;1.03;;
15404;SDS011;7801;48.124;11.590;2023-07-29T13:41:56;1.23;;;1.23;;
15404;SDS011;7801;48.124;11.590;2023-07-29T13:44:21;1.43;;;1.33;;
15404;SDS011;7801;48.124;11.590;2023-07-29T13:46:46;1.30;;;1.30;;
15404;SDS011;7801;48.124;11.590;2023-07-29T13:49:12;0.63;;;0.63;;
15404;SDS011;7801;48.124;11.590;2023-07-29T13:51:37;1.07;;;1.07;;
15404;SDS011;7801;48.124;11.590;2023-07-29T13:54:02;7.67;;;1.20;;
15404;SDS011;7801;48.124;11.590;2023-07-29T13:56:28;1.30;;;1.30;;
15404;SDS011;7801;48.124;11.590;2023-07-29T13:58:53;1.00;;;1.00;;
15404;SDS011;7801;48.124;11.590;2023-07-29T14:01:18;0.80;;;0.80;;
15404;SDS011;7801;48.124;11.590;2023-07-29T14:03:44;0.50;;;0.50;;
15404;SDS011;7801;48.124;11.590;2023-07-29T14:06:09;0.93;;;0.93;;
15404;SDS011;7801;48.124;11.590;2023-07-29T14:08:34;0.60;;;0.60;;
15404;SDS011;7801;48.124;11.590;2023-07-29T14:11:00;1.20;;;0.90;;
15404;SDS011;7801;48.124;11.590;2023-07-29T14:13:25;1.83;;;1.20;;
15404;SDS011;7801;48.124;11.590;2023-07-29T14:15:51;0.70;;;0.70;;
15404;SDS011;7801;48.124;11.590;2023-07-29T14:18:16;0.50;;;0.50;;
15404;SDS011;7801;48.124;11.590;2023-07-29T14:20:42;0.57;;;0.57;;
15404;SDS011;7801;48.124;11.590;2023-07-29T14:23:07;1.07;;;1.00;;
15404;SDS011;7801;48.124;11.590;2023-07-29T14:25:32;1.07;;;1.07;;
15404;SDS011;7801;48.124;11.590;2023-07-29T14:27:58;1.20;;;1.20;;
15404;SDS011;7801;48.124;11.590;2023-07-29T14:30:23;0.30;;;0.30;;
15404;SDS011;7801;48.124;11.590;2023-07-29T14:32:49;0.63;;;0.63;;
15404;SDS011;7801;48.124;11.590;2023-07-29T14:35:14;4.47;;;1.47;;
15404;SDS011;7801;48.124;11.590;2023-07-29T14:37:39;1.60;;;1.23;;
15404;SDS011;7801;48.124;11.590;2023-07-29T14:40:05;0.70;;;0.70;;
15404;SDS011;7801;48.124;11.590;2023-07-29T14:42:32;0.67;;;0.67;;
15404;SDS011;7801;48.124;11.590;2023-07-29T14:44:58;0.43;;;0.43;;
15404;SDS011;7801;48.124;11.590;2023-07-29T14:47:23;0.77;;;0.77;;
15404;SDS011;7801;48.124;11.590;2023-07-29T14:49:48;2.37;;;1.63;;
15404;SDS011;7801;48.124;11.590;2023-07-29T14:52:14;0.63;;;0.63;;
15404;SDS011;7801;48.124;11.590;2023-07-29T14:54:39;0.97;;;0.97;;
15404;SDS011;7801;48.124;11.590;2023-07-29T14:57:05;1.03;;;1.03;;
15404;SDS011;7801;48.124;11.590;2023-07-29T14:59:31;2.40;;;2.07;;
15404;SDS011;7801;48.124;11.590;2023-07-29T15:01:57;1.00;;;1.00;;
15404;SDS011;7801;48.124;11.590;2023-07-29T15:04:22;0.80;;;0.80;;